Hachijojima Airport Hachijojima JP
ICAO: RJTH
IATA:
Category: Medium
Scheduled Services:

Elevation: 303 ft
TransAlt. 18000 ft.

Airport Communications:
RDO:118.7

RJTH Zoom In..

If you have problems with the map follow the link
https://www.worldairports.se/pages/airport.php?
ICAO=RJTH

Runways:

(A) RW 08 length 6562 ft width 148 ft
LOC 110.10 / hdg 75

(B) RW 26 length 6562 ft width 148 ft
LOC 110.10 / hdg 255

Location; RJTH
Day. 31 / Time. 08.00 Zulu
* QNH: 1013
* Temperature: 18° c. 64.4°f.
* Wind from: VRB° Speed 02 kn.
Dewpoint: 11° c.
Visibility: 10 km or more.
Clouds: Few 2000 ft.
Clouds: Overcast /00 ft.

RJTH 310800Z VRB02KT 9999 FEW020 OVC/// 18/11 Q1013


Wind From VRB°
Speed 02 kn.

 
 
jpsmedia.com for Web Design worldairports.se 2018   terms of use